Leyba, New Mexico
Current Conditions -  °F | °C
As of 11:53 PM on Tuesday 25 Nov 2014 (Local Time) from KCQC Reporting Station
Clear Clear  
Wind Chill: -8°   Ceiling: Unl
Heat Index: -1°   Visibility: 10mi
Dew Point: -12°   Wind: 25mph
Humidity: 42%   Direction: 290°WNW
Pressure: 30.19"   Gusts: NA
Location:  35.2352°N, 105.52°W
Report Text: KCQC 260653Z AUTO 29022KT 10SM CLR M01/M12 A3019 RMK AO2 PK WND 29026/0653 PRESFR SLP221 T10061122 400441106
Loading
Personal Weather Stations






























Interactive Weather Map New forecast layout! Learn more

10-Day Weather Forecast

Advertisements
Track Severe Weather on mobile